Terminal Aerodrome Forecast
Issued by NWS

Home | Current Version | Previous Version | Text Only | Print | Product List | Glossary On
Versions: 1 2 3 4 5 6 7 8 9 10 11 12 13
000
FTUS42 TJSJ 021129
TAFKPK
TAF
TKPK 021129Z 0212/0312 07015KT P6SM FEW018
     FM021300 07017G24KT P6SM FEW020
     FM022300 06015KT P6SM FEW025
      AMD NOT SKED 0302/0311=

USA.gov is the U.S. government's official web portal to all federal, state and local government web resources and services.